Puropanmaru No.3 — JD3322 — position and weather

sailwx.info

Track history (hours):
 
Tides and Currents Weather Stations Pressure Air Temp Water Temp Dewpoint Dewpoint Depression Visibility Wind Speed Wind Dir Waves Ship Positions

Puropanmaru No.3

Last reported at 2015-Mar-04 07:11 UTC. Time now 2015-Mar-04 22:50 UTC.
Position N 35°12' E 139°46'.

Length 68 m; draft 4.5 m.

Type: Tanker. MMSI: 431003365.

Date/timePositionNaut miles runAvg speedWind from/ knotsBaromVisibWave heightAir tempDewpointWater temp
2015-Mar-04 07:11N 35°12' E 139°46'610.0
2015-Mar-04 06:33N 35°18' E 139°44'1010.4
2015-Mar-04 05:33N 35°28' E 139°48'1511.4
2015-Mar-04 04:16N 35°33' E 140°05'6 0.3
2015-Mar-03 06:19N 35°31' E 139°58'1012.4
2015-Mar-03 05:33N 35°26' E 139°48'1211.6
2015-Mar-03 04:32N 35°14' E 139°47'24511.0
2015-Mar-02 06:19N 34°03' E 135°02'1013.9
2015-Mar-02 05:33N 34°14' E 135°03'1513.6
2015-Mar-02 04:26N 34°27' E 135°11'1213.4
2015-Mar-02 03:33N 34°36' E 135°21'4 3.7
2015-Mar-02 02:33N 34°34' E 135°26'0 0.0
2015-Mar-02 01:33N 34°34' E 135°26'0 0.0
2015-Mar-02 00:33N 34°34' E 135°26'0 0.0
2015-Mar-01 23:33N 34°34' E 135°26'1 1.3
2015-Mar-01 22:32N 34°36' E 135°25'2 1.7
2015-Mar-01 21:23N 34°36' E 135°23'0 0.0
2015-Mar-01 20:23N 34°36' E 135°23'0 0.0
2015-Mar-01 19:11N 34°36' E 135°23'0 0.0
2015-Mar-01 18:29N 34°36' E 135°23'5 5.4
2015-Mar-01 17:33N 34°33' E 135°18'1212.5
2015-Mar-01 16:33N 34°24' E 135°07'1111.1
2015-Mar-01 15:33N 34°15' E 134°59'1111.0
2015-Mar-01 14:31N 34°04' E 135°00'231 9.5
2015-Feb-28 14:08N 35°02' E 139°32'712.6
2015-Feb-28 13:33N 35°06' E 139°39'1211.5
2015-Feb-28 12:32N 35°17' E 139°45'1010.5
2015-Feb-28 11:33N 35°27' E 139°47'1611.6
2015-Feb-28 10:11N 35°33' E 140°05'15 2.6
2015-Feb-28 04:33N 35°26' E 139°49'1111.2
2015-Feb-28 03:33N 35°15' E 139°47'1212.3
2015-Feb-28 02:33N 35°04' E 139°43'23710.8
2015-Feb-27 04:33N 34°09' E 135°02'1813.1
2015-Feb-27 03:13N 34°25' E 135°10'913.4
2015-Feb-27 02:33N 34°32' E 135°17'8 7.6
2015-Feb-27 01:33N 34°34' E 135°26'0 0.0
2015-Feb-27 00:34N 34°34' E 135°26'0 0.0
2015-Feb-26 23:29N 34°34' E 135°26'0 0.0
2015-Feb-26 22:33N 34°34' E 135°26'3 2.7
2015-Feb-26 21:34N 34°36' E 135°24'4 3.7
2015-Feb-26 20:33N 34°40' E 135°23'0 0.0
2015-Feb-26 19:27N 34°40' E 135°23'0 0.0
2015-Feb-26 18:33N 34°40' E 135°23'0 0.0
2015-Feb-26 17:33N 34°40' E 135°23'0 0.0
2015-Feb-26 16:33N 34°40' E 135°23'0 0.0
2015-Feb-26 15:33N 34°40' E 135°23'0 0.0
2015-Feb-26 14:15N 34°40' E 135°23'0 0.0
2015-Feb-26 13:27N 34°40' E 135°23'0 0.0
2015-Feb-26 12:33N 34°40' E 135°23'0 0.0
2015-Feb-26 11:33N 34°40' E 135°23'0 0.1
2015-Feb-26 10:33N 34°40' E 135°23'0 0.0
2015-Feb-26 09:33N 34°40' E 135°23'0 0.0
2015-Feb-26 08:32N 34°40' E 135°23'0 0.0
2015-Feb-26 07:33N 34°40' E 135°23'0 0.0
2015-Feb-26 06:33N 34°40' E 135°23'0 0.0
2015-Feb-26 05:32N 34°40' E 135°23'0 0.0
2015-Feb-26 04:26N 34°40' E 135°23'0 0.0
2015-Feb-26 03:33N 34°40' E 135°23'0 0.0
2015-Feb-26 02:15N 34°40' E 135°23'0 0.0
2015-Feb-26 01:29N 34°40' E 135°23'0 0.1
2015-Feb-26 00:29N 34°40' E 135°23'0 0.0
2015-Feb-25 23:29N 34°40' E 135°23'0 0.0
2015-Feb-25 22:29N 34°40' E 135°23'0 0.0
2015-Feb-25 21:29N 34°40' E 135°23'0 0.0
2015-Feb-25 20:29N 34°40' E 135°23'0 0.0
2015-Feb-25 19:23N 34°40' E 135°23'0 0.0
2015-Feb-25 18:29N 34°40' E 135°23'0 0.0
2015-Feb-25 17:29N 34°40' E 135°23'0 0.0
2015-Feb-25 16:23N 34°40' E 135°23'0 0.0
2015-Feb-25 15:29N 34°40' E 135°23'0 0.0
2015-Feb-25 14:23N 34°40' E 135°23'0 0.0
2015-Feb-25 13:29N 34°40' E 135°23'0 0.0
2015-Feb-25 12:29N 34°40' E 135°23'0 0.0
2015-Feb-25 11:29N 34°40' E 135°23'0 0.0
2015-Feb-25 10:29N 34°40' E 135°23'0 0.0
2015-Feb-25 09:30N 34°40' E 135°23'1010.8
2015-Feb-25 08:34N 34°32' E 135°14'1212.3
2015-Feb-25 07:33N 34°23' E 135°05'1111.5
2015-Feb-25 06:33N 34°12' E 134°60'24310.0
2015-Feb-24 06:20N 35°13' E 139°46'1012.6
2015-Feb-24 05:33N 35°22' E 139°42'22 3.6
2015-Feb-23 23:34N 35°33' E 140°05'10 9.4
2015-Feb-23 22:31N 35°29' E 139°54'1212.5
2015-Feb-23 21:34N 35°20' E 139°44'24610.7
2015-Feb-22 22:34N 34°05' E 134°60'1312.7
2015-Feb-22 21:33N 34°17' E 135°03'7 6.6
2015-Feb-22 20:29N 34°22' E 135°09'0 0.0
2015-Feb-22 19:12N 34°22' E 135°09'0 0.0
2015-Feb-22 18:18N 34°22' E 135°09'0 0.0
2015-Feb-22 16:27N 34°22' E 135°10'0 0.0
2015-Feb-22 14:24N 34°22' E 135°10'0 0.0
2015-Feb-22 13:12N 34°22' E 135°10'0 0.0
2015-Feb-22 12:30N 34°22' E 135°10'0 0.0
2015-Feb-22 10:27N 34°22' E 135°10'0 0.0
2015-Feb-22 09:30N 34°22' E 135°10'  
Track history (hours):
 
Tides and Currents Weather Stations Pressure Air Temp Water Temp Dewpoint Dewpoint Depression Visibility Wind Speed Wind Dir Waves Ship Positions

Puropanmaru No.3

Last reported at 2015-Mar-04 07:11 UTC. Time now 2015-Mar-04 22:50 UTC.
Position N 35°12' E 139°46'.

Length 68 m; draft 4.5 m.

Type: Tanker. MMSI: 431003365.

Date/timePositionNaut miles runAvg speedWind from/ knotsBaromVisibWave heightAir tempDewpointWater temp
2015-Mar-04 07:11N 35°12' E 139°46'610.0
2015-Mar-04 06:33N 35°18' E 139°44'1010.4
2015-Mar-04 05:33N 35°28' E 139°48'1511.4
2015-Mar-04 04:16N 35°33' E 140°05'6 0.3
2015-Mar-03 06:19N 35°31' E 139°58'1012.4
2015-Mar-03 05:33N 35°26' E 139°48'1211.6
2015-Mar-03 04:32N 35°14' E 139°47'24511.0
2015-Mar-02 06:19N 34°03' E 135°02'1013.9
2015-Mar-02 05:33N 34°14' E 135°03'1513.6
2015-Mar-02 04:26N 34°27' E 135°11'1213.4
2015-Mar-02 03:33N 34°36' E 135°21'4 3.7
2015-Mar-02 02:33N 34°34' E 135°26'0 0.0
2015-Mar-02 01:33N 34°34' E 135°26'0 0.0
2015-Mar-02 00:33N 34°34' E 135°26'0 0.0
2015-Mar-01 23:33N 34°34' E 135°26'1 1.3
2015-Mar-01 22:32N 34°36' E 135°25'2 1.7
2015-Mar-01 21:23N 34°36' E 135°23'0 0.0
2015-Mar-01 20:23N 34°36' E 135°23'0 0.0
2015-Mar-01 19:11N 34°36' E 135°23'0 0.0
2015-Mar-01 18:29N 34°36' E 135°23'5 5.4
2015-Mar-01 17:33N 34°33' E 135°18'1212.5
2015-Mar-01 16:33N 34°24' E 135°07'1111.1
2015-Mar-01 15:33N 34°15' E 134°59'1111.0
2015-Mar-01 14:31N 34°04' E 135°00'231 9.5
2015-Feb-28 14:08N 35°02' E 139°32'712.6
2015-Feb-28 13:33N 35°06' E 139°39'1211.5
2015-Feb-28 12:32N 35°17' E 139°45'1010.5
2015-Feb-28 11:33N 35°27' E 139°47'1611.6
2015-Feb-28 10:11N 35°33' E 140°05'15 2.6
2015-Feb-28 04:33N 35°26' E 139°49'1111.2
2015-Feb-28 03:33N 35°15' E 139°47'1212.3
2015-Feb-28 02:33N 35°04' E 139°43'23710.8
2015-Feb-27 04:33N 34°09' E 135°02'1813.1
2015-Feb-27 03:13N 34°25' E 135°10'913.4
2015-Feb-27 02:33N 34°32' E 135°17'8 7.6
2015-Feb-27 01:33N 34°34' E 135°26'0 0.0
2015-Feb-27 00:34N 34°34' E 135°26'0 0.0
2015-Feb-26 23:29N 34°34' E 135°26'0 0.0
2015-Feb-26 22:33N 34°34' E 135°26'3 2.7
2015-Feb-26 21:34N 34°36' E 135°24'4 3.7
2015-Feb-26 20:33N 34°40' E 135°23'0 0.0
2015-Feb-26 19:27N 34°40' E 135°23'0 0.0
2015-Feb-26 18:33N 34°40' E 135°23'0 0.0
2015-Feb-26 17:33N 34°40' E 135°23'0 0.0
2015-Feb-26 16:33N 34°40' E 135°23'0 0.0
2015-Feb-26 15:33N 34°40' E 135°23'0 0.0
2015-Feb-26 14:15N 34°40' E 135°23'0 0.0
2015-Feb-26 13:27N 34°40' E 135°23'0 0.0
2015-Feb-26 12:33N 34°40' E 135°23'0 0.0
2015-Feb-26 11:33N 34°40' E 135°23'0 0.1
2015-Feb-26 10:33N 34°40' E 135°23'0 0.0
2015-Feb-26 09:33N 34°40' E 135°23'0 0.0
2015-Feb-26 08:32N 34°40' E 135°23'0 0.0
2015-Feb-26 07:33N 34°40' E 135°23'0 0.0
2015-Feb-26 06:33N 34°40' E 135°23'0 0.0
2015-Feb-26 05:32N 34°40' E 135°23'0 0.0
2015-Feb-26 04:26N 34°40' E 135°23'0 0.0
2015-Feb-26 03:33N 34°40' E 135°23'0 0.0
2015-Feb-26 02:15N 34°40' E 135°23'0 0.0
2015-Feb-26 01:29N 34°40' E 135°23'0 0.1
2015-Feb-26 00:29N 34°40' E 135°23'0 0.0
2015-Feb-25 23:29N 34°40' E 135°23'0 0.0
2015-Feb-25 22:29N 34°40' E 135°23'0 0.0
2015-Feb-25 21:29N 34°40' E 135°23'0 0.0
2015-Feb-25 20:29N 34°40' E 135°23'0 0.0
2015-Feb-25 19:23N 34°40' E 135°23'0 0.0
2015-Feb-25 18:29N 34°40' E 135°23'0 0.0
2015-Feb-25 17:29N 34°40' E 135°23'0 0.0
2015-Feb-25 16:23N 34°40' E 135°23'0 0.0
2015-Feb-25 15:29N 34°40' E 135°23'0 0.0
2015-Feb-25 14:23N 34°40' E 135°23'0 0.0
2015-Feb-25 13:29N 34°40' E 135°23'0 0.0
2015-Feb-25 12:29N 34°40' E 135°23'0 0.0
2015-Feb-25 11:29N 34°40' E 135°23'0 0.0
2015-Feb-25 10:29N 34°40' E 135°23'0 0.0
2015-Feb-25 09:30N 34°40' E 135°23'1010.8
2015-Feb-25 08:34N 34°32' E 135°14'1212.3
2015-Feb-25 07:33N 34°23' E 135°05'1111.5
2015-Feb-25 06:33N 34°12' E 134°60'24310.0
2015-Feb-24 06:20N 35°13' E 139°46'1012.6
2015-Feb-24 05:33N 35°22' E 139°42'22 3.6
2015-Feb-23 23:34N 35°33' E 140°05'10 9.4
2015-Feb-23 22:31N 35°29' E 139°54'1212.5
2015-Feb-23 21:34N 35°20' E 139°44'24610.7
2015-Feb-22 22:34N 34°05' E 134°60'1312.7
2015-Feb-22 21:33N 34°17' E 135°03'7 6.6
2015-Feb-22 20:29N 34°22' E 135°09'0 0.0
2015-Feb-22 19:12N 34°22' E 135°09'0 0.0
2015-Feb-22 18:18N 34°22' E 135°09'0 0.0
2015-Feb-22 16:27N 34°22' E 135°10'0 0.0
2015-Feb-22 14:24N 34°22' E 135°10'0 0.0
2015-Feb-22 13:12N 34°22' E 135°10'0 0.0
2015-Feb-22 12:30N 34°22' E 135°10'0 0.0
2015-Feb-22 10:27N 34°22' E 135°10'0 0.0
2015-Feb-22 09:30N 34°22' E 135°10'  

Dump ship's entire track history